tititudorancea.com
Station Historical Data
Daily Summary for May 27, 2018 Units:  Metric    English   Both
« Previous Day
Next Day »
Daily Weekly Monthly Yearly Custom
  High: Low: Average:
Temperature: -17.8 °C 10.5 °C 14.2 °C
Dew Point: -17.8 °C 6.8 °C 8.8 °C
Humidity: Humidity % 58 % 70 %
Wind Speed: 0 km/h 0 km/h 9.5 km/h
Wind Gust: 0 km/h - -
Wind:- - NNE
Pressure: 0 hPa 1018.8 hPa -
Precipitation: 0.51 mm    
Historical Graphs
 
 
Ararat weather Find more about Weather in Ararat, AU


 



 


Tabular Data for May 27, 2018
Time Temperature Dew Point Pressure Wind Wind Speed Wind Gust Humidity Rainfall Rate (Hourly)
-17.8 °C -17.8 °C 0 hPa Calm     Humidity % 0 mm
00:03 11.2 °C 7.3 °C 1022.6 hPa NNE 5.6 km/h 5.6 km/h 77 % 0 mm
00:08 11.2 °C 7.3 °C 1022.6 hPa NNE 9.3 km/h 9.3 km/h 77 % 0 mm
00:13 11.3 °C 7.4 °C 1022.6 hPa NNE 5.6 km/h 5.6 km/h 77 % 0 mm
00:18 11.4 °C 7.5 °C 1022.6 hPa NNE 7.4 km/h 7.4 km/h 77 % 0 mm
00:23 11.5 °C 7.4 °C 1022.6 hPa NNE 6.4 km/h 6.4 km/h 76 % 0 mm
00:28 11.6 °C 7.5 °C 1022.6 hPa NNE 7.4 km/h 7.4 km/h 76 % 0 mm
00:33 11.8 °C 7.7 °C 1022.6 hPa NNE 8 km/h 8 km/h 76 % 0 mm
00:38 11.9 °C 7.8 °C 1022.6 hPa NNE 11.1 km/h 11.1 km/h 76 % 0 mm
00:43 12.3 °C 7.9 °C 1022.2 hPa NNE 11.3 km/h 11.3 km/h 75 % 0 mm
00:48 12.4 °C 7.9 °C 1022.2 hPa NNE 7.4 km/h 7.4 km/h 74 % 0 mm
00:53 12.4 °C 7.9 °C 1022.2 hPa NNE 6.4 km/h 6.4 km/h 74 % 0 mm
00:58 12.4 °C 7.7 °C 1022.2 hPa NNE 5.6 km/h 5.6 km/h 73 % 0 mm
01:03 12.4 °C 7.7 °C 1022.2 hPa NNE 5.6 km/h 5.6 km/h 73 % 0 mm
01:08 12.3 °C 7.6 °C 1021.9 hPa NNE 5.6 km/h 5.6 km/h 73 % 0 mm
01:13 12.2 °C 7.4 °C 1021.9 hPa NNE 7.4 km/h 7.4 km/h 73 % 0 mm
01:18 11.9 °C 7.4 °C 1021.9 hPa NNE 6.4 km/h 6.4 km/h 74 % 0 mm
01:23 11.7 °C 7.4 °C 1021.9 hPa NNE 5.6 km/h 5.6 km/h 75 % 0 mm
01:28 11.7 °C 7.4 °C 1021.9 hPa NNE 5.6 km/h 5.6 km/h 75 % 0 mm
01:33 11.7 °C 7.6 °C 1021.9 hPa NNE 5.6 km/h 5.6 km/h 76 % 0 mm
01:38 11.7 °C 7.6 °C 1021.9 hPa NNE 5.6 km/h 5.6 km/h 76 % 0 mm
01:43 11.8 °C 7.5 °C 1021.9 hPa NNE 7.4 km/h 7.4 km/h 75 % 0 mm
01:48 11.7 °C 7.4 °C 1021.9 hPa NNE 5.6 km/h 5.6 km/h 75 % 0 mm
01:53 11.5 °C 7.2 °C 1021.6 hPa NNE 5.6 km/h 5.6 km/h 75 % 0 mm
01:58 11.2 °C 6.9 °C 1021.6 hPa NNE 5.6 km/h 5.6 km/h 75 % 0 mm
02:03 11 °C 6.9 °C 1021.6 hPa NNE 5.6 km/h 5.6 km/h 76 % 0 mm
02:08 10.9 °C 7.2 °C 1021.6 hPa NNE 5.6 km/h 5.6 km/h 78 % 0 mm
02:13 10.7 °C 6.8 °C 1021.6 hPa NNE 5.6 km/h 5.6 km/h 77 % 0 mm
02:18 10.7 °C 7.2 °C 1021.6 hPa NNE 5.6 km/h 5.6 km/h 79 % 0 mm
02:23 10.5 °C 7 °C 1021.6 hPa NNE 3.7 km/h 3.7 km/h 79 % 0 mm
02:28 10.6 °C 7.1 °C 1021.9 hPa NNE 5.6 km/h 5.6 km/h 79 % 0 mm
02:33 10.6 °C 7.1 °C 1021.9 hPa NNE 5.6 km/h 5.6 km/h 79 % 0 mm
02:38 10.8 °C 7.5 °C 1021.6 hPa NNE 7.4 km/h 7.4 km/h 80 % 0 mm
02:43 11.2 °C 7.7 °C 1021.6 hPa NNE 7.4 km/h 7.4 km/h 79 % 0 mm
02:48 11.6 °C 7.7 °C 1021.9 hPa NNE 8 km/h 8 km/h 77 % 0 mm
02:53 12 °C 7.9 °C 1021.9 hPa NNE 9.3 km/h 9.3 km/h 76 % 0 mm
02:58 12.4 °C 7.9 °C 1021.6 hPa NNE 13 km/h 13 km/h 74 % 0 mm
03:03 12.7 °C 7.9 °C 1021.6 hPa NNE 11.1 km/h 11.1 km/h 73 % 0 mm
03:08 12.8 °C 7.9 °C 1021.6 hPa NNE 7.4 km/h 7.4 km/h 72 % 0 mm
03:13 12.9 °C 7.8 °C 1021.6 hPa NNE 13 km/h 13 km/h 71 % 0 mm
03:18 13.1 °C 7.7 °C 1021.6 hPa NNE 11.1 km/h 11.1 km/h 70 % 0 mm
03:23 13.2 °C 7.8 °C 1021.6 hPa NNE 7.4 km/h 7.6 km/h 70 % 0 mm
03:28 13.2 °C 7.8 °C 1021.6 hPa NNE 5.6 km/h 5.6 km/h 70 % 0 mm
03:33 13.2 °C 7.8 °C 1021.6 hPa NNE 11.1 km/h 11.1 km/h 70 % 0 mm
03:38 13.2 °C 7.8 °C 1021.6 hPa NNE 11.1 km/h 11.1 km/h 70 % 0 mm
03:43 12.8 °C 7.5 °C 1021.6 hPa NNE 7.4 km/h 7.4 km/h 70 % 0 mm
03:48 12.5 °C 7.6 °C 1021.6 hPa NNE 6.4 km/h 6.4 km/h 72 % 0 mm
03:53 12.2 °C 7.4 °C 1021.6 hPa NNE 6.4 km/h 6.4 km/h 73 % 0 mm
03:58 12.1 °C 7.4 °C 1021.6 hPa NNE 9.3 km/h 9.3 km/h 73 % 0 mm
04:03 12.1 °C 7.6 °C 1021.6 hPa NNE 5.6 km/h 5.6 km/h 74 % 0 mm
04:08 12.1 °C 7.6 °C 1021.6 hPa NNE 7.4 km/h 7.4 km/h 74 % 0 mm
04:13 12 °C 7.5 °C 1021.6 hPa NNE 5.6 km/h 5.6 km/h 74 % 0 mm
04:18 11.9 °C 7.4 °C 1021.6 hPa NNE 6.4 km/h 6.4 km/h 74 % 0 mm
04:23 11.8 °C 7.3 °C 1021.6 hPa NNE 5.6 km/h 5.6 km/h 74 % 0 mm
04:28 11.7 °C 7.2 °C 1021.9 hPa NNE 3.7 km/h 3.7 km/h 74 % 0 mm
04:33 11.6 °C 7.3 °C 1021.6 hPa NNE 5.6 km/h 5.6 km/h 75 % 0 mm
04:38 11.6 °C 7.3 °C 1021.6 hPa NNE 5.6 km/h 5.6 km/h 75 % 0 mm
04:43 11.6 °C 7.3 °C 1021.9 hPa NNE 7.4 km/h 7.4 km/h 75 % 0 mm
04:48 11.6 °C 7.3 °C 1021.9 hPa NNE 5.6 km/h 5.6 km/h 75 % 0 mm
04:53 11.5 °C 7.2 °C 1021.9 hPa NNE 7.4 km/h 7.4 km/h 75 % 0 mm
04:58 11.5 °C 7.4 °C 1021.9 hPa NNE 9.7 km/h 9.7 km/h 76 % 0 mm
05:03 11.4 °C 7.3 °C 1021.9 hPa NNE 7.4 km/h 7.4 km/h 76 % 0 mm
05:08 11.4 °C 7.3 °C 1021.9 hPa NNE 6.4 km/h 6.4 km/h 76 % 0 mm
05:13 11.4 °C 7.3 °C 1021.6 hPa NNE 7.4 km/h 7.4 km/h 76 % 0 mm
05:18 11.4 °C 7.3 °C 1021.6 hPa NNE 9.3 km/h 9.3 km/h 76 % 0 mm
05:23 11.3 °C 7.2 °C 1021.6 hPa NNE 6.4 km/h 6.4 km/h 76 % 0 mm
05:28 11.3 °C 7.2 °C 1021.6 hPa NNE 6.4 km/h 6.4 km/h 76 % 0 mm
05:33 11.3 °C 7.2 °C 1021.6 hPa NNE 8 km/h 8 km/h 76 % 0 mm
05:38 11.2 °C 7.2 °C 1021.6 hPa NNE 7.4 km/h 7.4 km/h 76 % 0 mm
05:43 11.2 °C 7.3 °C 1021.6 hPa NNE 9.3 km/h 9.3 km/h 77 % 0 mm
05:48 11.3 °C 7.3 °C 1021.6 hPa NNE 11.1 km/h 11.1 km/h 76 % 0 mm
05:53 11.4 °C 7.3 °C 1021.6 hPa NNE 11.1 km/h 11.1 km/h 76 % 0 mm
05:58 11.6 °C 7.4 °C 1021.6 hPa NNE 11.1 km/h 11.1 km/h 76 % 0 mm
06:03 11.7 °C 7.4 °C 1021.6 hPa NNE 7.4 km/h 8.5 km/h 75 % 0 mm
06:05 11.8 °C 7.5 °C 1021.9 hPa NNE 11.1 km/h 11.1 km/h 75 % 0 mm
06:10 11.9 °C 7.4 °C 1021.6 hPa North 12.9 km/h 12.9 km/h 74 % 0 mm
06:15 12.1 °C 7.6 °C 1021.9 hPa North 11.1 km/h 11.1 km/h 74 % 0 mm
06:20 12.2 °C 7.4 °C 1021.6 hPa North 11.1 km/h 11.1 km/h 73 % 0 mm
06:25 12.2 °C 7.4 °C 1021.9 hPa North 9.3 km/h 9.3 km/h 73 % 0 mm
06:30 12.2 °C 7.4 °C 1021.9 hPa North 9.3 km/h 9.3 km/h 73 % 0 mm
06:35 12.1 °C 7.4 °C 1021.9 hPa North 13 km/h 13 km/h 73 % 0 mm
06:40 12.1 °C 7.4 °C 1021.9 hPa North 9.3 km/h 9.3 km/h 73 % 0 mm
06:45 12.1 °C 7.4 °C 1021.9 hPa North 11.1 km/h 11.1 km/h 73 % 0 mm
06:50 12.1 °C 7.4 °C 1021.9 hPa North 13 km/h 13 km/h 73 % 0 mm
06:55 12.1 °C 7.3 °C 1021.9 hPa North 11.1 km/h 11.1 km/h 73 % 0 mm
07:00 12 °C 7.3 °C 1021.9 hPa North 9.3 km/h 9.3 km/h 73 % 0 mm
07:05 12 °C 7.3 °C 1021.9 hPa North 11.1 km/h 11.1 km/h 73 % 0 mm
07:10 11.9 °C 7.3 °C 1021.9 hPa North 8 km/h 8 km/h 73 % 0 mm
07:15 11.9 °C 7.3 °C 1021.9 hPa North 7.4 km/h 7.4 km/h 73 % 0 mm
07:20 11.9 °C 7.4 °C 1021.9 hPa North 7.4 km/h 7.4 km/h 74 % 0 mm
07:25 11.9 °C 7.4 °C 1022.2 hPa North 5.6 km/h 5.6 km/h 74 % 0 mm
07:30 11.8 °C 7.3 °C 1022.2 hPa North 7.4 km/h 7.4 km/h 74 % 0 mm
07:35 11.8 °C 7.3 °C 1022.2 hPa North 5.6 km/h 5.6 km/h 74 % 0 mm
07:40 11.8 °C 7.3 °C 1022.2 hPa North 7.4 km/h 7.4 km/h 74 % 0 mm
07:45 11.8 °C 7.3 °C 1022.2 hPa North 5.6 km/h 5.6 km/h 74 % 0 mm
07:50 11.8 °C 7.3 °C 1022.2 hPa North 5.6 km/h 5.6 km/h 74 % 0 mm
07:55 11.8 °C 7.5 °C 1022.2 hPa North 5.6 km/h 5.6 km/h 75 % 0 mm
08:00 11.8 °C 7.5 °C 1022.2 hPa North 7.4 km/h 7.4 km/h 75 % 0 mm
08:05 11.8 °C 7.6 °C 1022.2 hPa North 5.6 km/h 5.6 km/h 75 % 0 mm
08:07 11.8 °C 7.6 °C 1022.2 hPa North 7.4 km/h 7.4 km/h 75 % 0 mm
08:12 11.9 °C 7.6 °C 1022.2 hPa North 5.6 km/h 5.6 km/h 75 % 0 mm
08:17 11.9 °C 7.7 °C 1022.2 hPa North 6.4 km/h 6.4 km/h 75 % 0 mm
08:22 12.1 °C 7.6 °C 1022.2 hPa North 5.6 km/h 5.6 km/h 74 % 0 mm
08:27 12.1 °C 7.6 °C 1022.2 hPa North 5.6 km/h 5.6 km/h 74 % 0 mm
08:32 12.2 °C 7.7 °C 1022.6 hPa North 8 km/h 8 km/h 74 % 0 mm
08:37 12.3 °C 7.8 °C 1022.6 hPa North 5.6 km/h 5.6 km/h 74 % 0 mm
08:42 12.4 °C 7.9 °C 1022.2 hPa North 5.6 km/h 5.6 km/h 74 % 0 mm
08:47 12.7 °C 7.9 °C 1022.2 hPa North 5.6 km/h 5.6 km/h 73 % 0 mm
08:52 12.9 °C 8 °C 1022.2 hPa North 8 km/h 8 km/h 72 % 0 mm
08:57 13.1 °C 8.2 °C 1022.2 hPa North 5.6 km/h 5.6 km/h 72 % 0 mm
09:02 13.2 °C 8.3 °C 1022.2 hPa North 5.6 km/h 5.6 km/h 72 % 0 mm
09:07 13.3 °C 8.3 °C 1022.2 hPa North 7.4 km/h 7.4 km/h 72 % 0 mm
09:12 13.4 °C 8.5 °C 1022.2 hPa North 7.4 km/h 7.4 km/h 72 % 0 mm
09:17 13.7 °C 8.6 °C 1022.2 hPa North 9.7 km/h 9.7 km/h 71 % 0 mm
09:22 13.9 °C 8.6 °C 1022.2 hPa North 8 km/h 8 km/h 70 % 0 mm
09:27 14.1 °C 8.5 °C 1022.2 hPa North 11.3 km/h 11.3 km/h 69 % 0 mm
09:32 14.3 °C 8.7 °C 1022.2 hPa North 9.3 km/h 9.3 km/h 69 % 0 mm
09:37 14.3 °C 8.5 °C 1022.2 hPa North 14.5 km/h 14.5 km/h 68 % 0 mm
09:42 14.4 °C 8.6 °C 1022.2 hPa North 14.8 km/h 14.8 km/h 68 % 0 mm
09:47 14.4 °C 8.6 °C 1022.2 hPa North 12.9 km/h 12.9 km/h 68 % 0 mm
09:52 14.6 °C 8.8 °C 1022.2 hPa North 13 km/h 13 km/h 68 % 0 mm
09:57 14.7 °C 8.7 °C 1022.2 hPa North 16.7 km/h 16.7 km/h 67 % 0 mm
10:02 14.8 °C 8.7 °C 1022.2 hPa North 11.1 km/h 11.1 km/h 67 % 0 mm
10:07 14.9 °C 8.8 °C 1021.9 hPa North 14.8 km/h 14.8 km/h 67 % 0 mm
10:12 14.9 °C 8.9 °C 1021.9 hPa North 7.4 km/h 7.4 km/h 67 % 0 mm
10:17 15 °C 8.9 °C 1022.2 hPa North 11.1 km/h 11.1 km/h 67 % 0 mm
10:22 15.1 °C 8.9 °C 1022.2 hPa North 9.3 km/h 9.3 km/h 67 % 0 mm
10:27 15.1 °C 9 °C 1021.9 hPa North 9.7 km/h 9.7 km/h 67 % 0 mm
10:32 15.2 °C 9.1 °C 1021.9 hPa North 5.6 km/h 5.6 km/h 67 % 0 mm
10:37 15.2 °C 8.9 °C 1021.9 hPa North 9.3 km/h 9.3 km/h 66 % 0 mm
10:42 15.3 °C 8.9 °C 1021.9 hPa North 14.8 km/h 14.8 km/h 66 % 0 mm
10:47 15.2 °C 8.9 °C 1021.9 hPa North 11.3 km/h 11.3 km/h 66 % 0 mm
10:52 15.2 °C 8.9 °C 1021.9 hPa North 13 km/h 13 km/h 66 % 0 mm
10:57 15.3 °C 8.9 °C 1021.9 hPa North 9.3 km/h 9.3 km/h 66 % 0 mm
11:02 15.3 °C 8.9 °C 1021.9 hPa North 13 km/h 13 km/h 66 % 0 mm
11:07 15.3 °C 9.2 °C 1021.9 hPa North 11.1 km/h 11.1 km/h 67 % 0 mm
11:12 15.4 °C 9.1 °C 1021.9 hPa North 16.7 km/h 16.7 km/h 66 % 0 mm
11:17 15.4 °C 9.1 °C 1021.9 hPa North 14.8 km/h 14.8 km/h 66 % 0 mm
11:22 15.6 °C 9.2 °C 1021.6 hPa NNE 17.7 km/h 17.7 km/h 66 % 0 mm
11:27 15.6 °C 9.3 °C 1021.6 hPa NNE 13 km/h 13 km/h 66 % 0 mm
11:32 15.7 °C 9.4 °C 1021.6 hPa North 14.8 km/h 14.8 km/h 66 % 0 mm
11:37 15.8 °C 9.5 °C 1021.6 hPa North 16.1 km/h 16.1 km/h 66 % 0 mm
11:42 15.9 °C 9.4 °C 1021.6 hPa North 18.5 km/h 18.5 km/h 65 % 0 mm
11:47 16 °C 9.2 °C 1021.2 hPa North 16.1 km/h 16.1 km/h 64 % 0 mm
11:52 16.1 °C 9.3 °C 1021.2 hPa North 18.5 km/h 18.5 km/h 64 % 0 mm
11:57 16.2 °C 9.3 °C 1021.2 hPa North 18.5 km/h 18.5 km/h 64 % 0 mm
12:02 16.2 °C 9.6 °C 1021.2 hPa North 14.8 km/h 14.8 km/h 65 % 0 mm
12:07 16.3 °C 9.4 °C 1021.2 hPa North 13 km/h 13 km/h 64 % 0 mm
12:12 16.4 °C 9.6 °C 1020.9 hPa North 9.3 km/h 9.8 km/h 64 % 0 mm
12:17 16.4 °C 9.3 °C 1020.9 hPa NNE 18.5 km/h 18.5 km/h 63 % 0 mm
12:22 16.4 °C 9.3 °C 1020.9 hPa NNE 18.5 km/h 18.5 km/h 63 % 0 mm
12:27 16.3 °C 9.3 °C 1020.9 hPa NNE 14.8 km/h 14.8 km/h 63 % 0 mm
12:32 16.3 °C 9.3 °C 1020.5 hPa NNE 18.5 km/h 18.5 km/h 63 % 0 mm
12:37 16.3 °C 9.3 °C 1020.5 hPa NNE 18.5 km/h 18.5 km/h 63 % 0 mm
12:42 16.3 °C 9.5 °C 1020.5 hPa NNE 16.7 km/h 16.7 km/h 64 % 0 mm
12:47 16.3 °C 9.5 °C 1020.5 hPa NNE 11.1 km/h 11.1 km/h 64 % 0 mm
12:52 16.3 °C 9.3 °C 1020.5 hPa NNE 18.5 km/h 18.5 km/h 63 % 0 mm
12:57 16.3 °C 9.3 °C 1020.2 hPa NNE 19.3 km/h 19.3 km/h 63 % 0 mm
13:02 16.4 °C 9.3 °C 1020.2 hPa NNE 16.7 km/h 16.7 km/h 63 % 0 mm
13:07 16.4 °C 9.6 °C 1020.2 hPa NNE 16.7 km/h 16.7 km/h 64 % 0 mm
13:12 16.4 °C 9.4 °C 1020.2 hPa NNE 18.5 km/h 18.5 km/h 63 % 0 mm
13:17 16.4 °C 9.4 °C 1020.2 hPa NNE 11.3 km/h 11.3 km/h 63 % 0 mm
13:22 16.5 °C 9.4 °C 1020.2 hPa NNE 13 km/h 13 km/h 63 % 0 mm
13:27 16.5 °C 9.4 °C 1019.9 hPa NNE 18.5 km/h 18.5 km/h 63 % 0 mm
13:32 16.6 °C 9.5 °C 1019.9 hPa NNE 9.7 km/h 9.7 km/h 63 % 0 mm
13:37 16.6 °C 9.5 °C 1019.9 hPa North 9.3 km/h 9.3 km/h 63 % 0 mm
13:42 16.6 °C 9.6 °C 1019.9 hPa NNE 18.5 km/h 18.5 km/h 63 % 0 mm
13:47 16.6 °C 9.6 °C 1019.9 hPa NNE 8 km/h 8 km/h 63 % 0 mm
13:52 16.7 °C 9.6 °C 1019.9 hPa NNE 11.1 km/h 11.1 km/h 63 % 0 mm
13:57 16.7 °C 9.7 °C 1019.9 hPa NNE 16.7 km/h 16.7 km/h 63 % 0 mm
14:02 16.8 °C 9.7 °C 1019.9 hPa NNE 8 km/h 8 km/h 63 % 0 mm
14:07 16.9 °C 9.8 °C 1019.5 hPa NNE 6.4 km/h 6.4 km/h 63 % 0 mm
14:12 16.9 °C 9.8 °C 1019.5 hPa NNE 11.1 km/h 11.1 km/h 63 % 0 mm
14:17 17.1 °C 10 °C 1019.5 hPa NNE 9.3 km/h 9.3 km/h 63 % 0 mm
14:22 17.3 °C 9.9 °C 1019.5 hPa NNE 9.3 km/h 9.3 km/h 62 % 0 mm
14:27 17.5 °C 9.9 °C 1019.5 hPa NNE 16.7 km/h 16.7 km/h 61 % 0 mm
14:32 17.7 °C 10.1 °C 1019.5 hPa NNE 11.1 km/h 11.1 km/h 61 % 0 mm
14:33 17.7 °C 10.1 °C 1019.5 hPa NNE 16.7 km/h 16.7 km/h 61 % 0 mm
14:38 17.8 °C 10.2 °C 1019.2 hPa NNE 11.1 km/h 11.1 km/h 61 % 0 mm
14:43 17.9 °C 10.3 °C 1019.2 hPa NNE 7.4 km/h 7.4 km/h 61 % 0 mm
14:48 17.9 °C 10.1 °C 1019.2 hPa NNE 6.4 km/h 6.4 km/h 60 % 0 mm
14:53 18.1 °C 10.4 °C 1019.2 hPa NNE 7.4 km/h 7.4 km/h 61 % 0 mm
14:58 18.2 °C 10.6 °C 1019.2 hPa NNE 16.7 km/h 16.7 km/h 61 % 0 mm
15:03 18.4 °C 10.5 °C 1019.2 hPa NNE 18.5 km/h 18.5 km/h 60 % 0 mm
15:08 18.5 °C 10.3 °C 1019.2 hPa NNE 18.5 km/h 18.5 km/h 59 % 0 mm
15:13 18.6 °C 10.4 °C 1019.2 hPa NNE 18.5 km/h 18.5 km/h 59 % 0 mm
15:18 18.6 °C 10.1 °C 1019.2 hPa NNE 14.8 km/h 14.8 km/h 58 % 0 mm
15:23 18.5 °C 10.1 °C 1019.2 hPa North 22.2 km/h 22.2 km/h 58 % 0 mm
15:28 18.5 °C 10.1 °C 1019.2 hPa NNE 18.5 km/h 18.5 km/h 58 % 0 mm
15:33 18.4 °C 10 °C 1019.2 hPa North 13 km/h 13 km/h 58 % 0 mm
15:38 18.4 °C 10 °C 1019.2 hPa NNE 11.1 km/h 11.1 km/h 58 % 0 mm
15:43 18.3 °C 9.9 °C 1019.2 hPa North 9.3 km/h 9.3 km/h 58 % 0 mm
15:48 18.3 °C 9.9 °C 1019.2 hPa North 14.8 km/h 14.8 km/h 58 % 0 mm
15:53 18.3 °C 9.9 °C 1018.8 hPa North 11.1 km/h 11.1 km/h 58 % 0 mm
15:58 18.3 °C 10.1 °C 1018.8 hPa North 13 km/h 13 km/h 59 % 0 mm
16:03 18.2 °C 10.1 °C 1018.8 hPa North 16.7 km/h 16.7 km/h 59 % 0 mm
16:08 18.2 °C 10.1 °C 1018.8 hPa North 18.5 km/h 18.5 km/h 59 % 0 mm
16:13 18.2 °C 10 °C 1018.8 hPa North 14.8 km/h 14.8 km/h 59 % 0 mm
16:18 18.1 °C 9.9 °C 1018.8 hPa North 11.1 km/h 11.1 km/h 59 % 0 mm
16:23 18 °C 10.1 °C 1019.2 hPa NNE 18.5 km/h 18.5 km/h 60 % 0 mm
16:29 17.7 °C 10.1 °C 1019.2 hPa NNE 9.3 km/h 9.3 km/h 61 % 0 mm
16:34 17.5 °C 10.1 °C 1019.2 hPa NNE 14.8 km/h 14.8 km/h 62 % 0 mm
16:39 17.3 °C 9.9 °C 1019.2 hPa NNE 13 km/h 13 km/h 62 % 0 mm
16:44 17.1 °C 10 °C 1019.2 hPa NNE 13 km/h 13 km/h 63 % 0 mm
16:49 17 °C 9.9 °C 1019.5 hPa NNE 9.3 km/h 9.3 km/h 63 % 0 mm
16:54 16.9 °C 10.1 °C 1019.2 hPa NNE 11.3 km/h 11.3 km/h 64 % 0 mm
16:59 16.8 °C 9.9 °C 1019.2 hPa NNE 6.4 km/h 6.4 km/h 64 % 0 mm
17:04 16.6 °C 10 °C 1019.2 hPa NNE 5.6 km/h 5.6 km/h 65 % 0 mm
17:09 16.5 °C 9.9 °C 1019.2 hPa NNE 5.6 km/h 5.6 km/h 65 % 0 mm
17:14 16.4 °C 10.1 °C 1019.2 hPa NNE 11.1 km/h 11.1 km/h 66 % 0 mm
17:19 16.3 °C 9.9 °C 1019.2 hPa NNE 5.6 km/h 5.6 km/h 66 % 0 mm
17:24 16.2 °C 9.8 °C 1019.2 hPa NNE 1.9 km/h 1.9 km/h 66 % 0 mm
17:29 16.1 °C 9.8 °C 1019.2 hPa NNE 5.6 km/h 5.6 km/h 66 % 0 mm
17:34 16.1 °C 9.9 °C 1019.2 hPa NNE 3.7 km/h 3.7 km/h 67 % 0 mm
17:39 16 °C 9.9 °C 1019.2 hPa NNE 7.4 km/h 7.4 km/h 67 % 0 mm
17:44 15.9 °C 9.8 °C 1019.2 hPa NNE 5.6 km/h 5.6 km/h 67 % 0 mm
17:49 15.9 °C 9.8 °C 1019.2 hPa NNE 3.7 km/h 3.7 km/h 67 % 0 mm
17:54 15.8 °C 9.7 °C 1019.5 hPa NNE 8 km/h 8 km/h 67 % 0 mm
17:59 15.7 °C 9.6 °C 1019.5 hPa NNE 9.3 km/h 9.3 km/h 67 % 0 mm
18:04 15.6 °C 9.7 °C 1019.5 hPa NNE 7.4 km/h 7.4 km/h 68 % 0 mm
18:09 15.4 °C 9.6 °C 1019.5 hPa NNE 5.6 km/h 5.6 km/h 68 % 0 mm
18:14 15.4 °C 9.5 °C 1019.2 hPa NNE 5.6 km/h 5.6 km/h 68 % 0 mm
18:19 15.4 °C 9.5 °C 1019.2 hPa NNE 9.3 km/h 9.3 km/h 68 % 0 mm
18:24 15.4 °C 9.6 °C 1019.2 hPa NE 18.5 km/h 18.5 km/h 68 % 0 mm
18:29 15.5 °C 9.6 °C 1019.5 hPa NE 9.3 km/h 9.3 km/h 68 % 0 mm
18:34 15.6 °C 9.7 °C 1019.5 hPa NE 14.8 km/h 14.8 km/h 68 % 0 mm
18:39 15.6 °C 9.7 °C 1019.5 hPa NE 11.1 km/h 11.1 km/h 68 % 0 mm
18:44 15.7 °C 9.8 °C 1019.5 hPa NE 13 km/h 13 km/h 68 % 0 mm
18:49 15.7 °C 9.8 °C 1019.5 hPa NE 7.4 km/h 7.4 km/h 68 % 0 mm
18:54 15.6 °C 9.7 °C 1019.5 hPa NE 7.4 km/h 7.4 km/h 68 % 0 mm
18:59 15.6 °C 9.7 °C 1019.5 hPa NE 11.1 km/h 11.1 km/h 68 % 0 mm
19:04 15.4 °C 9.6 °C 1019.5 hPa NE 5.6 km/h 5.6 km/h 68 % 0 mm
19:09 15.3 °C 9.7 °C 1019.5 hPa NE 11.1 km/h 11.1 km/h 69 % 0 mm
19:14 15.3 °C 9.6 °C 1019.5 hPa NE 14.8 km/h 14.8 km/h 69 % 0 mm
19:15 15.3 °C 9.6 °C 1019.5 hPa NE 14.8 km/h 14.8 km/h 69 % 0 mm
19:20 15.2 °C 9.6 °C 1019.5 hPa NE 8 km/h 8 km/h 69 % 0 mm
19:25 15.2 °C 9.8 °C 1019.5 hPa NE 8 km/h 8 km/h 70 % 0 mm
19:30 15.2 °C 9.8 °C 1019.5 hPa NE 4.8 km/h 19.3 km/h 70 % 0 mm
19:35 15.2 °C 9.8 °C 1019.5 hPa NE 8 km/h 19.3 km/h 70 % 0 mm
19:40 15.3 °C 9.9 °C 1019.5 hPa NE 8 km/h 16.1 km/h 70 % 0 mm
19:45 15.4 °C 9.9 °C 1019.5 hPa NE 4.8 km/h 16.1 km/h 70 % 0 mm
19:50 15.4 °C 9.7 °C 1019.5 hPa NE 14.8 km/h 14.8 km/h 69 % 0 mm
19:55 15.4 °C 9.8 °C 1019.5 hPa NE 9.7 km/h 9.7 km/h 69 % 0 mm
20:00 15.5 °C 9.8 °C 1019.5 hPa NE 4.8 km/h 20.9 km/h 69 % 0 mm
20:05 15.5 °C 9.8 °C 1019.5 hPa NE 16.7 km/h 16.7 km/h 69 % 0 mm
20:10 15.5 °C 9.8 °C 1019.5 hPa NE 11.1 km/h 11.1 km/h 69 % 0 mm
20:15 15.4 °C 9.8 °C 1019.5 hPa NE 8 km/h 17.7 km/h 69 % 0 mm
20:20 15.4 °C 9.8 °C 1019.5 hPa NE 16.7 km/h 16.7 km/h 69 % 0 mm
20:25 15.4 °C 9.8 °C 1019.5 hPa NE 13 km/h 13 km/h 69 % 0 mm
20:30 15.4 °C 9.7 °C 1019.5 hPa NE 9.3 km/h 9.3 km/h 69 % 0 mm
20:35 15.4 °C 9.9 °C 1019.5 hPa NE 8 km/h 8 km/h 70 % 0 mm
20:40 15.3 °C 9.9 °C 1019.5 hPa NE 7.4 km/h 10 km/h 70 % 0 mm
20:45 15.3 °C 9.9 °C 1019.5 hPa NE 11.3 km/h 19.3 km/h 70 % 0 mm
20:50 15.4 °C 9.9 °C 1019.5 hPa NE 20.4 km/h 20.4 km/h 70 % 0 mm
20:55 15.3 °C 9.9 °C 1019.5 hPa NE 4.8 km/h 12.9 km/h 70 % 0 mm
21:00 15.2 °C 9.8 °C 1019.5 hPa NE 4.8 km/h 9.7 km/h 70 % 0 mm
21:05 15.2 °C 9.7 °C 1019.9 hPa NE 13 km/h 13 km/h 70 % 0 mm
21:10 15.1 °C 9.9 °C 1019.9 hPa NE 4.8 km/h 12.9 km/h 71 % 0 mm
21:15 15.1 °C 9.8 °C 1019.9 hPa NE 7.4 km/h 7.4 km/h 71 % 0 mm
21:20 15 °C 9.8 °C 1019.9 hPa NE 11.1 km/h 11.1 km/h 71 % 0 mm
21:25 15 °C 10 °C 1019.9 hPa NE 13 km/h 13 km/h 72 % 0 mm
21:30 15 °C 10 °C 1019.9 hPa NE 11.1 km/h 11.1 km/h 72 % 0 mm
21:35 15 °C 10 °C 1019.9 hPa NE 1.6 km/h 9.7 km/h 72 % 0 mm
21:40 14.9 °C 9.9 °C 1019.9 hPa NE 5.6 km/h 5.6 km/h 72 % 0 mm
21:45 14.9 °C 9.9 °C 1019.9 hPa NE 3.2 km/h 9.7 km/h 72 % 0 mm
21:50 14.9 °C 9.9 °C 1019.9 hPa NE 7.4 km/h 7.4 km/h 72 % 0 mm
21:55 14.9 °C 9.9 °C 1019.9 hPa NE 5.6 km/h 5.6 km/h 72 % 0 mm
22:00 14.9 °C 9.9 °C 1019.9 hPa NE 3.2 km/h 9.7 km/h 72 % 0 mm
22:05 14.9 °C 9.9 °C 1020.2 hPa NE 7.4 km/h 7.4 km/h 72 % 0 mm
22:10 14.8 °C 10.1 °C 1020.2 hPa NE 4.8 km/h 8 km/h 73 % 0 mm
22:15 14.7 °C 10.1 °C 1020.5 hPa NE 5.6 km/h 5.6 km/h 74 % 0 mm
22:20 14.6 °C 10.2 °C 1020.5 hPa NE 4.8 km/h 4.8 km/h 75 % 0 mm
22:25 14.4 °C 10.3 °C 1020.5 hPa NE 6.4 km/h 6.4 km/h 76 % 0 mm
22:30 14.3 °C 10.5 °C 1020.5 hPa NE 8 km/h 9.7 km/h 78 % 0 mm
22:35 14 °C 10.6 °C 1020.5 hPa NNE 12.9 km/h 12.9 km/h 80 % 0.25 mm
22:40 13.7 °C 10.5 °C 1020.5 hPa NNE 11.3 km/h 16.1 km/h 81 % 0 mm
22:45 13.5 °C 10.7 °C 1020.5 hPa NNE 8 km/h 12.9 km/h 83 % 0 mm
22:50 13.3 °C 10.7 °C 1020.5 hPa NNE 4.8 km/h 11.3 km/h 84 % 0 mm
22:55 13.3 °C 10.8 °C 1020.5 hPa NNE 7.4 km/h 7.4 km/h 85 % 0.25 mm
23:00 13.2 °C 10.8 °C 1020.2 hPa NNE 7.4 km/h 7.4 km/h 85 % 0.25 mm
23:05 13.2 °C 10.9 °C 1020.2 hPa NNE 9.3 km/h 9.3 km/h 86 % 0.25 mm
23:10 13.1 °C 10.8 °C 1020.2 hPa NNE 3.2 km/h 6.4 km/h 86 % 0 mm
23:15 13.1 °C 10.8 °C 1020.2 hPa NNE 3.2 km/h 6.4 km/h 86 % 0 mm
23:20 13 °C 10.7 °C 1020.2 hPa NNE 3.2 km/h 6.4 km/h 86 % 0 mm
23:25 12.9 °C 10.8 °C 1019.9 hPa NNE 1.6 km/h 6.4 km/h 87 % 0 mm
23:30 12.9 °C 10.8 °C 1019.9 hPa Calm   4.8 km/h 87 % 0 mm
23:35 12.8 °C 10.7 °C 1019.9 hPa NNE 1.6 km/h 4.8 km/h 87 % 0.25 mm
23:40 12.8 °C 10.7 °C 1019.5 hPa NNE 1.9 km/h 1.9 km/h 87 % 0.25 mm
23:41 12.8 °C 10.7 °C 1019.5 hPa NNE 1.9 km/h 1.9 km/h 87 % 0.25 mm
23:46 12.7 °C 10.6 °C 1019.5 hPa Calm     87 % 0.25 mm
23:51 12.6 °C 10.5 °C 1019.5 hPa NNE 5.6 km/h 5.6 km/h 87 % 0.25 mm
23:56 12.6 °C 10.4 °C 1019.5 hPa NNE 5.6 km/h 5.6 km/h 87 % 0.25 mm
Ararat Weather
Compliments of Weather Underground - 2.25 mb
Click here to send mail.


ABOUT

Live weather data from Ararat, Victoria, Australia, 3377
Data uploaded from Cumulus every 5 minutes to Weather Underground.
This site then downloads the raw data for formatting and display.
Metric and imperial data can be displayed. Graphs and historical data available.
Includes Sun and Moon times and rain image live from BOM.

Check out Ararat Weather on Facebook, Twitter and Google +

Help support ongoing costs by checking out the ads





Follow @AraratWeather